• Join FlightAware (Why Join?)
  • Login
  • US Flag 
03:17AM EDT


 

Airport Tracker/Info


-or-


 

Live Flight TrackerFlight Track Log ✈ AWE3452 ✈ 21-Mar-2014 ✈ KPHL - KMHT

Flight Track Log - Related Links

Times and Time Zones

All times are in EDT time to prevent confusion due to time zone crossing. See the AWE3452 flight status page for this flight to view local times or setup timezone preferences in your user account.

Time Position Orientation Groundspeed Altitude Reporting Facility
EDT Latitude Longitude Course Direction KTS MPH feet Rate Location/Type
09:50AM 39.8667 -75.2667 218° Southwest 144 166 700  Level Philadelphia TRACON
09:50AM 39.8333 -75.3000 218° Southwest 167 192 1,600 2,220 Climbing Philadelphia TRACON
09:51AM 39.8000 -75.3333 218° Southwest 221 254 4,300 2,700 Climbing Philadelphia TRACON
09:52AM 39.7333 -75.3167 169° South 299 344 6,800 2,880 Climbing Philadelphia TRACON
09:53AM 39.7500 -75.2167 78° East 296 341 9,800 2,400 Climbing Philadelphia TRACON
09:54AM 39.7500 -75.1000 90° East 340 391 11,600 840 Climbing Philadelphia TRACON
09:56AM 39.7808 -74.8364 81° East 363 418 12,600 1,080 Climbing New York Center
09:57AM 39.8061 -74.7081 76° East 363 418 15,100 2,340 Climbing New York Center
09:58AM 39.8817 -74.6283 39° Northeast 320 368 17,300 2,100 Climbing New York Center
09:59AM 39.9592 -74.5542 36° Northeast 330 380 19,300 1,980 Climbing New York Center
10:00AM 40.0408 -74.4744 37° Northeast 352 405 21,300 1,920 Climbing New York Center
10:01AM 40.1247 -74.3922 37° Northeast 368 423 23,200 1,740 Climbing New York Center
10:02AM 40.2108 -74.3042 38° Northeast 380 437 24,800 900 Climbing New York Center
10:03AM 40.3006 -74.2244 34° Northeast 380 437 25,000 60 Climbing New York Center
10:06AM 40.5219 -74.0494 31° Northeast 391 450 25,000  Level Boston Center
10:07AM 40.6131 -73.9797 30° Northeast 385 443 25,000  Level Boston Center
10:08AM 40.7050 -73.9064 31° Northeast 382 440 25,000  Level Boston Center
10:09AM 40.7964 -73.8350 31° Northeast 382 440 25,000  Level Boston Center
10:10AM 40.8942 -73.7856 21° North 377 434 25,000  Level Boston Center
10:11AM 40.9906 -73.7883 359° North 352 405 25,000  Level Boston Center
10:12AM 41.0881 -73.7942 357° North 349 402 25,000  Level Boston Center
10:13AM 41.1856 -73.7989 358° North 349 402 25,000  Level Boston Center
10:14AM 41.2825 -73.8039 358° North 349 402 25,000  Level Boston Center
10:15AM 41.3792 -73.8078 358° North 349 402 25,000  Level Boston Center
10:16AM 41.4767 -73.8136 357° North 349 402 25,000  Level Boston Center
10:17AM 41.5744 -73.8181 358° North 349 402 25,000  Level Boston Center
10:18AM 41.6697 -73.8236 358° North 349 402 25,000  Level Boston Center
10:19AM 41.7869 -73.8206 North 348 400 25,000  Level Boston Center
10:20AM 41.8828 -73.8175 North 348 400 25,000  Level Boston Center
10:21AM 41.9789 -73.8169 360° North 346 398 25,000  Level Boston Center
10:22AM 42.0753 -73.8153 North 346 398 25,000 -240 Level Boston Center
10:23AM 42.1706 -73.8133 North 346 398 24,600 -600 Descending Boston Center
10:24AM 42.2589 -73.7378 32° Northeast 386 444 23,800 -960 Descending Boston Center
10:25AM 42.3117 -73.6025 62° Northeast 403 464 22,700 -1,200 Descending Boston Center
10:26AM 42.3664 -73.4536 64° Northeast 400 460 21,400 -1,140 Descending Boston Center
10:27AM 42.4097 -73.3397 63° Northeast 396 456 20,400 -1,080 Descending Boston Center
10:28AM 42.4581 -73.2114 63° Northeast 390 449 19,300 -720 Descending Boston Center
10:29AM 42.5019 -73.0656 68° East 377 434 19,000 -180 Descending Boston Center
10:30AM 42.5433 -72.9236 68° East 376 433 19,000 -420 Level Boston Center
10:31AM 42.5797 -72.7944 69° East 371 427 18,200 -1,140 Descending Boston Center
10:32AM 42.6167 -72.6661 69° East 367 422 16,800 -1,380 Descending Boston Center
10:33AM 42.6531 -72.5422 68° East 362 417 15,400 -1,380 Descending Boston Center
10:34AM 42.6858 -72.4203 70° East 353 406 14,000 -1,380 Descending Boston Center
10:35AM 42.7181 -72.2986 70° East 348 400 12,600 -1,440 Descending Boston Center
10:36AM 42.7542 -72.1700 69° East 337 388 11,100 -1,380 Descending Boston Center
10:37AM 42.7847 -72.0597 69° East 315 362 9,900 -1,380 Descending Boston Center
10:38AM 42.7944 -71.9431 83° East 302 348 8,300 -1,680 Descending Boston Center
10:39AM 42.7831 -71.8314 98° East 301 346 6,500 -1,560 Descending Boston Center
10:40AM 42.7717 -71.7219 98° East 297 342 5,200 -780 Descending Boston Center
10:41AM 42.7633 -71.6231 97° East 270 311 5,000 -120 Descending Boston Center
10:42AM 42.7547 -71.5200 96° East 262 302 5,000 -180 Level Boston Center
10:43AM 42.7667 -71.4408 78° East 224 258 4,700 -660 Descending Boston Center
10:44AM 42.7947 -71.3750 60° Northeast 203 234 3,700 -1,260 Descending Boston Center
10:45AM 42.8367 -71.3772 358° North 153 176 2,200 -1,140 Descending Boston Center
10:46AM 42.8733 -71.3994 336° Northwest 136 157 1,400 -840 Descending Boston Center
10:47AM 42.9081 -71.4203 336° Northwest 136 157 600 -540 Descending Boston Center
10:48AM 42.9369 -71.4381 336° Northwest 136 157 400 -240 Descending Boston Center